Time;durP1;ratioP1;P1;durP2;ratioP2;P2;SDS_P1;SDS_P2;PMS_P1;PMS_P2;Temp;Humidity;BMP_temperature;BMP_pressure;BME280_temperature;BME280_humidity;BME280_pressure;Samples;Min_cycle;Max_cycle;Signal;HPM_P1;HPM_P2
2021/11/09 00:01:05;;;;;;;23.30;12.75;;;5.10;99.90;;;;;;4955325;28;20389;-74
2021/11/09 00:03:37;;;;;;;27.33;24.48;;;5.00;99.90;;;;;;4954666;28;20050;-74
2021/11/09 00:06:16;;;;;;;20.15;15.70;;;4.90;99.90;;;;;;4953768;28;20149;-74
2021/11/09 00:09:34;;;;;;;14.70;11.48;;;4.80;99.90;;;;;;4954909;28;20027;-75
2021/11/09 00:11:29;;;;;;;15.68;14.27;;;4.90;99.90;;;;;;4950433;28;20051;-74
2021/11/09 00:13:55;;;;;;;13.93;11.27;;;4.80;99.90;;;;;;4954957;28;20035;-74
2021/11/09 00:16:22;;;;;;;18.42;14.40;;;4.70;99.90;;;;;;4954834;28;20031;-74
2021/11/09 00:18:49;;;;;;;13.93;12.48;;;4.60;99.90;;;;;;4954926;28;20043;-74
2021/11/09 00:21:17;;;;;;;22.95;16.27;;;4.50;99.90;;;;;;4959105;28;20045;-78
2021/11/09 00:23:46;;;;;;;38.53;31.90;;;4.40;99.90;;;;;;4970533;28;20050;-74
2021/11/09 00:26:14;;;;;;;17.17;15.30;;;4.40;99.90;;;;;;4955170;28;20065;-74
2021/11/09 00:28:40;;;;;;;13.35;11.02;;;4.30;99.90;;;;;;4954250;28;20134;-74
2021/11/09 00:31:07;;;;;;;27.77;12.32;;;4.20;99.90;;;;;;4954536;28;20031;-74
2021/11/09 00:33:33;;;;;;;15.32;11.25;;;4.30;99.90;;;;;;4954749;28;20039;-74
2021/11/09 00:36:00;;;;;;;12.18;11.05;;;4.20;99.90;;;;;;4971980;28;20042;-74
2021/11/09 00:38:27;;;;;;;12.93;11.60;;;4.10;99.90;;;;;;4953807;28;20042;-74
2021/11/09 00:40:54;;;;;;;21.08;12.55;;;4.10;99.90;;;;;;4964811;28;20050;-74
2021/11/09 00:43:23;;;;;;;12.40;11.18;;;4.10;99.90;;;;;;4962757;28;20062;-74
2021/11/09 00:45:52;;;;;;;14.23;10.70;;;4.00;99.90;;;;;;4953594;28;20048;-75
2021/11/09 00:48:19;;;;;;;11.32;10.20;;;3.90;99.90;;;;;;4953670;28;20031;-75
2021/11/09 00:50:48;;;;;;;12.88;9.98;;;3.80;99.90;;;;;;4953984;28;20035;-75
2021/11/09 00:53:19;;;;;;;17.52;9.43;;;3.80;99.90;;;;;;4954024;28;20031;-74
2021/11/09 00:55:46;;;;;;;10.68;9.60;;;3.80;99.90;;;;;;4954150;28;20477;-74
2021/11/09 00:58:13;;;;;;;16.65;11.20;;;3.60;99.90;;;;;;4954207;28;20479;-74
2021/11/09 01:00:39;;;;;;;29.42;14.25;;;3.60;99.90;;;;;;4953654;28;20039;-74
2021/11/09 01:03:07;;;;;;;20.50;15.65;;;3.60;99.90;;;;;;4954430;28;20050;-74
2021/11/09 01:05:37;;;;;;;15.02;13.18;;;3.50;99.90;;;;;;4953852;28;20047;-73
2021/11/09 01:08:06;;;;;;;17.45;11.20;;;3.50;99.90;;;;;;4968876;28;20054;-74
2021/11/09 01:10:36;;;;;;;15.10;11.95;;;3.30;99.90;;;;;;4954168;28;20050;-74
2021/11/09 01:13:03;;;;;;;11.95;9.65;;;3.20;99.90;;;;;;4953992;28;20047;-73
2021/11/09 01:15:31;;;;;;;18.35;9.90;;;3.20;99.90;;;;;;4953106;28;20031;-73
2021/11/09 01:17:58;;;;;;;15.68;10.00;;;3.20;99.90;;;;;;4953581;28;20035;-73
2021/11/09 01:20:27;;;;;;;11.30;9.65;;;3.00;99.90;;;;;;4953854;28;20046;-74
2021/11/09 01:22:56;;;;;;;16.77;10.05;;;3.00;99.90;;;;;;4953843;28;20039;-73
2021/11/09 01:25:24;;;;;;;9.75;8.80;;;3.00;99.90;;;;;;4953079;28;20066;-74
2021/11/09 01:27:51;;;;;;;16.27;9.95;;;3.00;99.90;;;;;;4954284;28;20040;-73
2021/11/09 01:30:19;;;;;;;14.05;10.55;;;2.90;99.90;;;;;;4957505;28;20039;-79
2021/11/09 01:32:48;;;;;;;13.25;9.25;;;2.90;99.90;;;;;;4959353;28;20031;-73
2021/11/09 01:35:14;;;;;;;11.82;10.55;;;2.90;99.90;;;;;;4957104;28;20461;-74
2021/11/09 01:37:40;;;;;;;15.25;10.10;;;2.80;99.90;;;;;;4953072;28;20038;-74
2021/11/09 01:40:08;;;;;;;12.77;9.18;;;2.80;99.90;;;;;;4960545;28;20038;-73
2021/11/09 01:42:35;;;;;;;13.48;9.73;;;2.90;99.90;;;;;;4961525;28;20046;-74
2021/11/09 01:45:02;;;;;;;13.02;10.35;;;2.80;99.90;;;;;;4953852;29;20042;-73
2021/11/09 01:47:28;;;;;;;16.77;9.02;;;2.70;99.90;;;;;;4961019;28;20027;-74
2021/11/09 01:49:54;;;;;;;12.60;11.38;;;2.60;99.90;;;;;;4953567;28;20046;-74
2021/11/09 01:52:21;;;;;;;15.23;10.93;;;2.60;99.90;;;;;;4952976;28;20031;-74
2021/11/09 01:54:47;;;;;;;13.73;10.70;;;2.50;99.90;;;;;;4955156;28;20031;-73
2021/11/09 01:57:13;;;;;;;12.00;10.77;;;2.40;99.90;;;;;;4957779;28;20031;-74
2021/11/09 01:59:39;;;;;;;17.05;11.93;;;2.30;99.90;;;;;;4957237;28;20058;-73
2021/11/09 02:02:06;;;;;;;13.23;10.63;;;2.20;99.90;;;;;;4956597;28;20116;-74
2021/11/09 02:04:33;;;;;;;14.38;10.35;;;2.30;99.90;;;;;;4956625;28;20036;-73
2021/11/09 02:06:59;;;;;;;13.45;11.25;;;2.20;99.90;;;;;;4964610;28;20392;-73
2021/11/09 02:09:25;;;;;;;20.98;12.13;;;2.10;99.90;;;;;;4969062;28;20050;-73
2021/11/09 02:11:52;;;;;;;15.30;10.98;;;2.00;99.90;;;;;;4956749;28;20039;-73
2021/11/09 02:14:18;;;;;;;11.60;10.40;;;1.90;99.90;;;;;;4957322;28;20042;-78
2021/11/09 02:16:45;;;;;;;18.05;10.93;;;1.90;99.90;;;;;;4956690;28;20386;-73
2021/11/09 02:19:12;;;;;;;12.23;11.00;;;1.90;99.90;;;;;;4971462;28;20035;-74
2021/11/09 02:21:38;;;;;;;17.92;11.88;;;2.00;99.90;;;;;;4960808;28;20027;-74
2021/11/09 02:24:05;;;;;;;16.75;14.80;;;2.10;99.90;;;;;;4960675;28;20034;-73
2021/11/09 02:26:31;;;;;;;15.10;12.00;;;1.80;99.90;;;;;;4960546;28;20039;-74
2021/11/09 02:28:58;;;;;;;18.33;11.07;;;1.70;99.90;;;;;;4965455;28;20035;-73
2021/11/09 02:31:30;;;;;;;14.18;11.32;;;1.60;99.90;;;;;;4956855;28;20058;-74
2021/11/09 02:33:57;;;;;;;18.73;12.00;;;1.60;99.90;;;;;;4962968;28;20030;-74
2021/11/09 02:36:24;;;;;;;17.50;13.10;;;1.60;99.90;;;;;;4964911;28;20039;-74
2021/11/09 02:38:50;;;;;;;13.02;11.63;;;1.60;99.90;;;;;;4956664;28;20051;-74
2021/11/09 02:41:16;;;;;;;20.08;12.02;;;1.50;99.90;;;;;;4971041;28;20465;-74
2021/11/09 02:43:43;;;;;;;14.10;10.25;;;1.50;99.90;;;;;;4955980;28;20039;-74
2021/11/09 02:46:36;;;;;;;11.90;10.15;;;1.50;99.90;;;;;;4956654;28;20027;-73
2021/11/09 02:51:41;;;;;;;;;;;1.50;99.90;;;;;;4956066;28;20035;-74
2021/11/09 02:54:28;;;;;;;12.50;11.13;;;1.50;99.90;;;;;;4971766;28;20279;-73
2021/11/09 02:57:04;;;;;;;13.73;11.88;;;1.40;99.90;;;;;;4958750;28;20039;-73
2021/11/09 03:10:15;;;;;;;18.13;12.38;;;1.30;99.90;;;;;;4955848;28;20042;-74
2021/11/09 03:12:41;;;;;;;11.35;10.25;;;1.40;99.90;;;;;;4968897;28;20061;-74
2021/11/09 03:15:11;;;;;;;14.90;11.60;;;1.40;99.90;;;;;;4959583;28;20035;-74
2021/11/09 03:17:48;;;;;;;18.10;10.85;;;1.40;99.90;;;;;;4955327;28;20239;-74
2021/11/09 03:20:24;;;;;;;13.70;12.02;;;1.30;99.90;;;;;;4956494;28;20461;-74
2021/11/09 03:40:04;;;;;;;16.10;11.18;;;1.30;99.90;;;;;;4954329;28;20051;-73
2021/11/09 03:45:21;;;;;;;19.70;13.43;;;1.00;99.90;;;;;;4955783;28;20035;-73
2021/11/09 03:47:52;;;;;;;13.70;10.50;;;1.10;99.90;;;;;;4955454;28;20039;-73
2021/11/09 03:50:20;;;;;;;12.60;11.23;;;1.00;99.90;;;;;;4954973;28;20054;-77
2021/11/09 03:52:54;;;;;;;16.10;12.37;;;1.10;99.90;;;;;;4955408;28;20403;-73
2021/11/09 03:55:41;;;;;;;13.98;11.82;;;1.10;99.90;;;;;;4954870;28;20421;-77
2021/11/09 04:00:55;;;;;;;15.70;12.82;;;1.00;99.90;;;;;;4955587;28;20043;-73
2021/11/09 04:03:47;;;;;;;20.20;14.35;;;0.90;99.90;;;;;;4953984;28;20058;-75
2021/11/09 04:06:37;;;;;;;15.18;12.35;;;0.90;99.90;;;;;;4958392;28;20491;-73
2021/11/09 04:17:12;;;;;;;20.42;11.77;;;0.70;99.90;;;;;;4955108;28;20035;-72
2021/11/09 04:19:51;;;;;;;16.38;10.90;;;0.70;99.90;;;;;;4953443;28;20553;-73
2021/11/09 04:23:41;;;;;;;14.57;11.88;;;0.60;99.90;;;;;;4954331;28;20042;-75
2021/11/09 04:28:07;;;;;;;;;;;0.70;99.90;;;;;;4955367;28;20039;-73
2021/11/09 04:34:18;;;;;;;21.85;15.77;;;0.50;99.90;;;;;;4954458;28;20488;-74
2021/11/09 05:08:32;;;;;;;16.52;13.98;;;0.00;99.90;;;;;;4958206;28;20046;-74
2021/11/09 05:10:59;;;;;;;18.58;12.95;;;-0.10;99.90;;;;;;4953771;28;20027;-74
2021/11/09 05:13:25;;;;;;;12.13;10.85;;;-0.10;99.90;;;;;;4952323;28;20050;-73
2021/11/09 05:15:52;;;;;;;12.75;11.10;;;-0.10;99.90;;;;;;4953883;28;20389;-74
2021/11/09 05:18:20;;;;;;;24.00;19.40;;;0.00;99.90;;;;;;4960555;28;20042;-73
2021/11/09 05:20:46;;;;;;;25.33;18.95;;;0.00;99.90;;;;;;4952923;28;20035;-73
2021/11/09 05:23:13;;;;;;;25.60;15.88;;;0.00;99.90;;;;;;4953921;28;20495;-73
2021/11/09 05:25:40;;;;;;;25.58;18.52;;;0.00;99.90;;;;;;4966161;28;20034;-73
2021/11/09 05:28:08;;;;;;;32.08;21.10;;;0.00;99.90;;;;;;4959404;28;20044;-73
2021/11/09 05:30:37;;;;;;;32.00;25.27;;;0.00;99.90;;;;;;4958042;28;20039;-74
2021/11/09 05:33:04;;;;;;;56.22;38.95;;;0.00;99.90;;;;;;4973122;28;20036;-73
2021/11/09 05:35:30;;;;;;;44.45;31.38;;;0.10;99.90;;;;;;4956943;28;20042;-73
2021/11/09 05:37:58;;;;;;;58.72;27.05;;;0.10;99.90;;;;;;4954055;28;20050;-73
2021/11/09 05:40:34;;;;;;;30.05;17.20;;;0.00;99.90;;;;;;4953801;28;20062;-74
2021/11/09 05:43:02;;;;;;;35.88;17.67;;;0.00;99.90;;;;;;4953895;28;20060;-73
2021/11/09 05:45:28;;;;;;;36.05;18.73;;;0.00;99.90;;;;;;4952022;29;20036;-73
2021/11/09 05:47:56;;;;;;;27.13;17.42;;;0.00;99.90;;;;;;4953664;28;20477;-73
2021/11/09 05:50:23;;;;;;;27.45;18.33;;;0.00;99.90;;;;;;4953090;28;20031;-79
2021/11/09 05:52:49;;;;;;;38.92;19.42;;;0.10;99.90;;;;;;4969662;28;20392;-73
2021/11/09 05:55:16;;;;;;;44.15;24.45;;;0.20;99.90;;;;;;4965211;28;20042;-73
2021/11/09 05:57:43;;;;;;;57.95;27.48;;;0.20;99.90;;;;;;4959130;28;20034;-73
2021/11/09 06:00:10;;;;;;;45.20;23.30;;;0.20;99.90;;;;;;4953894;28;20039;-73
2021/11/09 06:02:40;;;;;;;62.50;24.90;;;0.10;99.90;;;;;;4952830;28;20426;-73
2021/11/09 06:05:07;;;;;;;35.80;20.95;;;0.20;99.90;;;;;;4958498;28;20039;-78
2021/11/09 06:07:33;;;;;;;48.47;23.33;;;0.10;99.90;;;;;;4962488;28;20047;-73
2021/11/09 06:10:00;;;;;;;32.50;20.40;;;0.10;99.90;;;;;;4953181;28;20035;-74
2021/11/09 06:12:26;;;;;;;25.35;17.20;;;-0.10;99.90;;;;;;4953268;28;20473;-74
2021/11/09 06:14:52;;;;;;;39.70;22.73;;;-0.10;99.90;;;;;;4953396;28;20058;-73
2021/11/09 06:17:18;;;;;;;23.48;16.30;;;-0.20;99.90;;;;;;4953242;28;20042;-74
2021/11/09 06:19:45;;;;;;;20.52;15.05;;;-0.20;99.90;;;;;;4963452;28;20042;-73
2021/11/09 06:22:12;;;;;;;31.85;21.73;;;-0.20;99.90;;;;;;4970672;28;20039;-73
2021/11/09 06:24:38;;;;;;;25.75;17.40;;;-0.20;99.90;;;;;;4956501;28;20031;-75
2021/11/09 06:27:05;;;;;;;34.53;24.92;;;-0.20;99.90;;;;;;4964873;28;20035;-73
2021/11/09 06:29:31;;;;;;;55.17;23.73;;;-0.10;99.90;;;;;;4952318;28;20035;-74
2021/11/09 06:31:59;;;;;;;36.83;21.08;;;-0.10;99.90;;;;;;4953272;28;20031;-75
2021/11/09 06:34:26;;;;;;;35.45;20.85;;;-0.10;99.90;;;;;;4962973;28;20043;-74
2021/11/09 06:36:53;;;;;;;40.05;22.55;;;-0.10;99.90;;;;;;4955644;28;20038;-73
2021/11/09 06:39:19;;;;;;;44.75;26.48;;;0.00;99.90;;;;;;4966982;28;20038;-73
2021/11/09 06:41:45;;;;;;;38.58;22.00;;;0.10;99.90;;;;;;4952931;28;20036;-74
2021/11/09 06:44:11;;;;;;;42.10;25.83;;;0.10;99.90;;;;;;4956799;28;20062;-73
2021/11/09 06:46:38;;;;;;;61.13;34.75;;;0.30;99.90;;;;;;4956242;28;20065;-73
2021/11/09 06:49:04;;;;;;;54.60;29.10;;;0.40;99.90;;;;;;4956669;28;20040;-73
2021/11/09 06:51:30;;;;;;;49.30;29.13;;;0.50;99.90;;;;;;4963897;28;20027;-73
2021/11/09 06:53:56;;;;;;;39.03;26.40;;;0.40;99.90;;;;;;4967732;28;20050;-73
2021/11/09 06:56:26;;;;;;;44.90;27.70;;;0.40;99.90;;;;;;4965040;28;20031;-81
2021/11/09 06:58:53;;;;;;;43.95;25.17;;;0.40;99.90;;;;;;4961661;28;20368;-73
2021/11/09 07:01:20;;;;;;;50.10;26.75;;;0.50;99.90;;;;;;4970120;28;20023;-73
2021/11/09 07:03:50;;;;;;;46.38;26.98;;;0.50;99.90;;;;;;4954078;28;20074;-73
2021/11/09 07:06:16;;;;;;;44.47;24.65;;;0.60;99.90;;;;;;4968169;28;20042;-73
2021/11/09 07:08:46;;;;;;;38.08;24.65;;;0.70;99.90;;;;;;4966779;28;20046;-74
2021/11/09 07:11:12;;;;;;;55.55;27.65;;;0.70;99.90;;;;;;4938944;29;20396;-73
2021/11/09 07:13:40;;;;;;;70.43;27.52;;;0.70;99.90;;;;;;4967475;28;20057;-73
2021/11/09 07:16:06;;;;;;;44.72;23.67;;;0.80;99.90;;;;;;4956403;28;20043;-74
2021/11/09 07:18:33;;;;;;;74.05;26.80;;;0.90;99.90;;;;;;4954957;28;20027;-77
2021/11/09 07:20:59;;;;;;;72.13;28.48;;;0.90;99.90;;;;;;4974963;28;20031;-74
2021/11/09 07:23:25;;;;;;;49.55;24.38;;;0.90;99.90;;;;;;4961653;28;20499;-80
2021/11/09 07:25:52;;;;;;;41.78;24.05;;;0.80;99.90;;;;;;4969550;28;20048;-73
2021/11/09 07:28:20;;;;;;;54.97;27.95;;;0.80;99.90;;;;;;4955901;28;20031;-74
2021/11/09 07:30:57;;;;;;;39.92;25.20;;;0.90;99.90;;;;;;4954847;28;20043;-74
2021/11/09 07:33:24;;;;;;;30.83;23.75;;;1.50;99.90;;;;;;4955605;28;20051;-77
2021/11/09 07:35:50;;;;;;;32.97;24.27;;;2.00;99.90;;;;;;4959696;28;20419;-73
2021/11/09 07:38:17;;;;;;;32.80;26.73;;;2.70;99.90;;;;;;4973555;28;20457;-80
2021/11/09 07:40:48;;;;;;;27.98;25.20;;;3.20;99.90;;;;;;4964331;28;20036;-75
2021/11/09 07:43:15;;;;;;;25.38;21.00;;;3.40;99.90;;;;;;4955765;28;20035;-75
2021/11/09 07:45:42;;;;;;;24.67;18.48;;;3.50;99.90;;;;;;4955444;28;20365;-75
2021/11/09 07:48:09;;;;;;;21.80;14.18;;;3.90;99.90;;;;;;4955482;28;20051;-75
2021/11/09 07:50:35;;;;;;;19.48;13.85;;;4.30;99.90;;;;;;4955184;28;20054;-80
2021/11/09 07:53:03;;;;;;;23.20;11.20;;;4.60;99.90;;;;;;4974345;28;20038;-75
2021/11/09 07:55:38;;;;;;;16.25;10.70;;;4.60;99.90;;;;;;4958608;28;20100;-75
2021/11/09 07:58:10;;;;;;;17.73;9.25;;;4.60;99.90;;;;;;4954860;28;20481;-76
2021/11/09 08:00:41;;;;;;;13.93;9.70;;;4.80;99.90;;;;;;4955581;29;20046;-77
2021/11/09 08:03:13;;;;;;;13.65;8.82;;;4.90;99.90;;;;;;4955636;28;20050;-75
2021/11/09 08:08:25;;;;;;;9.35;8.43;;;4.80;99.90;;;;;;4956067;28;20046;-75
2021/11/09 08:10:52;;;;;;;8.57;7.72;;;4.40;99.90;;;;;;4973338;28;20030;-75
2021/11/09 08:13:18;;;;;;;10.55;9.35;;;4.10;99.90;;;;;;4972156;28;20047;-75
2021/11/09 08:15:45;;;;;;;11.05;10.05;;;3.90;99.90;;;;;;4954651;28;20259;-75
2021/11/09 08:18:15;;;;;;;10.65;8.98;;;3.80;99.90;;;;;;4971218;28;20038;-75
2021/11/09 08:20:41;;;;;;;10.88;8.65;;;3.80;99.90;;;;;;4960783;28;20031;-75
2021/11/09 08:23:08;;;;;;;12.15;8.70;;;3.80;99.90;;;;;;4955033;28;20357;-75
2021/11/09 08:25:35;;;;;;;9.52;7.75;;;4.00;99.90;;;;;;4954847;28;20058;-74
2021/11/09 08:28:02;;;;;;;11.35;9.93;;;4.20;99.90;;;;;;4954953;29;20038;-74
2021/11/09 08:30:29;;;;;;;10.02;7.53;;;4.30;99.90;;;;;;4954798;28;20396;-75
2021/11/09 08:32:57;;;;;;;9.82;8.80;;;4.50;99.90;;;;;;4954953;28;20035;-75
2021/11/09 08:35:25;;;;;;;14.18;9.90;;;4.60;99.90;;;;;;4965567;28;20046;-74
2021/11/09 08:37:54;;;;;;;9.52;8.65;;;4.80;99.90;;;;;;4954800;28;20058;-74
2021/11/09 08:40:22;;;;;;;14.23;9.70;;;4.80;99.90;;;;;;4954740;28;20090;-74
2021/11/09 08:42:53;;;;;;;15.07;10.98;;;5.00;99.90;;;;;;4954346;28;20418;-75
2021/11/09 08:45:29;;;;;;;11.30;10.20;;;5.20;99.90;;;;;;4954823;28;20063;-75
2021/11/09 08:48:05;;;;;;;10.18;9.10;;;5.30;99.90;;;;;;4954705;28;20039;-75
2021/11/09 08:50:31;;;;;;;10.15;8.93;;;5.40;99.90;;;;;;4954209;28;20381;-75
2021/11/09 08:53:03;;;;;;;13.65;9.90;;;5.50;99.90;;;;;;4954802;28;20054;-74
2021/11/09 09:06:24;;;;;;;8.68;6.80;;;6.00;99.90;;;;;;4912019;29;20067;-74
2021/11/09 09:08:51;;;;;;;8.30;7.47;;;6.00;99.90;;;;;;4937346;28;20054;-74
2021/11/09 09:11:19;;;;;;;16.38;7.53;;;6.10;99.90;;;;;;4954156;28;20038;-74
2021/11/09 09:13:45;;;;;;;9.43;6.20;;;6.20;99.90;;;;;;4966452;28;20109;-74
2021/11/09 09:16:11;;;;;;;8.88;5.22;;;6.30;99.90;;;;;;4966304;28;20042;-74
2021/11/09 09:18:38;;;;;;;11.43;7.03;;;6.40;99.90;;;;;;4970024;28;20038;-74
2021/11/09 09:21:18;;;;;;;5.95;5.38;;;6.60;99.90;;;;;;4972272;28;20050;-74
2021/11/09 09:23:55;;;;;;;5.95;4.95;;;6.70;99.90;;;;;;4962929;28;20477;-74
2021/11/09 09:29:37;;;;;;;11.57;5.95;;;7.10;99.90;;;;;;4953635;28;20035;-74
2021/11/09 09:58:47;;;;;;;5.22;3.17;;;8.80;95.30;;;;;;4959651;28;20031;-75
2021/11/09 10:01:15;;;;;;;10.27;4.05;;;9.00;95.00;;;;;;4972069;28;20031;-74
2021/11/09 10:03:42;;;;;;;7.80;2.88;;;9.10;93.70;;;;;;4957626;28;20448;-75
2021/11/09 10:06:09;;;;;;;5.90;2.92;;;9.20;92.70;;;;;;4954107;28;20058;-74
2021/11/09 10:08:51;;;;;;;9.60;3.65;;;9.30;91.70;;;;;;4953559;28;20035;-75
2021/11/09 10:11:38;;;;;;;4.22;2.33;;;9.40;90.20;;;;;;4972932;28;20031;-76
2021/11/09 10:14:06;;;;;;;3.63;1.90;;;9.70;82.70;;;;;;4963962;28;20039;-75
2021/11/09 10:16:38;;;;;;;5.18;2.55;;;9.70;82.80;;;;;;4954361;28;20043;-74
2021/11/09 10:19:05;;;;;;;5.47;2.65;;;9.90;81.30;;;;;;4957511;28;20047;-75
2021/11/09 10:21:39;;;;;;;5.22;2.47;;;10.00;81.00;;;;;;4970009;28;20042;-74
2021/11/09 10:24:27;;;;;;;4.22;2.45;;;10.00;74.80;;;;;;4957024;28;20035;-74
2021/11/09 10:26:57;;;;;;;5.45;2.50;;;10.30;73.80;;;;;;4971284;28;20349;-73
2021/11/09 10:29:41;;;;;;;4.07;2.03;;;10.40;70.90;;;;;;4957188;28;20058;-74
2021/11/09 10:32:13;;;;;;;3.60;1.85;;;10.40;70.50;;;;;;4970914;28;20042;-74
2021/11/09 10:34:40;;;;;;;7.10;2.17;;;10.40;69.80;;;;;;4955910;28;20059;-75
2021/11/09 10:37:22;;;;;;;6.30;1.98;;;10.60;68.30;;;;;;4962659;28;20023;-74
2021/11/09 10:39:51;;;;;;;5.03;2.20;;;10.50;67.10;;;;;;4978028;28;20381;-73
2021/11/09 10:42:21;;;;;;;3.15;1.25;;;10.60;68.00;;;;;;4960380;28;20036;-73
2021/11/09 10:44:57;;;;;;;1.55;0.90;;;10.60;65.80;;;;;;4959318;28;20035;-74
2021/11/09 10:47:29;;;;;;;1.30;0.85;;;10.70;64.50;;;;;;4968359;28;20031;-74
2021/11/09 10:50:22;;;;;;;4.00;1.10;;;10.80;65.00;;;;;;4969178;28;20042;-74
2021/11/09 10:53:57;;;;;;;3.85;0.80;;;10.70;65.00;;;;;;4960862;28;20115;-73
2021/11/09 10:56:55;;;;;;;3.42;1.05;;;10.70;64.10;;;;;;4962916;28;20047;-77
2021/11/09 10:59:48;;;;;;;1.00;0.57;;;10.80;63.60;;;;;;4962867;28;20038;-74
2021/11/09 11:05:22;;;;;;;4.85;1.20;;;10.80;61.40;;;;;;4972126;28;20460;-74
2021/11/09 11:08:00;;;;;;;4.20;1.30;;;10.80;61.90;;;;;;4957287;28;20255;-73
2021/11/09 11:10:34;;;;;;;4.18;0.70;;;11.00;60.60;;;;;;4956509;28;20483;-74
2021/11/09 11:13:22;;;;;;;1.83;0.68;;;10.90;61.00;;;;;;4956543;28;20058;-76
2021/11/09 11:16:10;;;;;;;2.45;0.77;;;11.10;60.20;;;;;;4955890;28;20048;-74
2021/11/09 11:18:39;;;;;;;4.00;0.73;;;11.20;60.00;;;;;;4967100;28;20035;-74
2021/11/09 11:21:07;;;;;;;1.73;0.60;;;11.00;59.30;;;;;;4964022;28;20057;-74
2021/11/09 11:23:37;;;;;;;1.55;0.70;;;11.00;59.70;;;;;;4955918;28;20047;-74
2021/11/09 11:26:08;;;;;;;0.80;0.40;;;11.00;60.00;;;;;;4955858;28;20039;-74
2021/11/09 11:28:40;;;;;;;1.73;0.60;;;11.10;58.60;;;;;;4955357;28;20388;-73
2021/11/09 11:31:08;;;;;;;1.63;0.45;;;11.10;58.80;;;;;;4956539;28;20027;-72
2021/11/09 11:33:35;;;;;;;0.85;0.60;;;11.20;58.70;;;;;;4955852;28;20035;-71
2021/11/09 11:36:04;;;;;;;1.05;0.68;;;11.40;59.30;;;;;;4972155;28;20042;-73
2021/11/09 11:38:33;;;;;;;2.47;1.00;;;11.30;58.60;;;;;;4955370;28;20034;-72
2021/11/09 11:41:02;;;;;;;74.13;46.85;;;11.30;59.10;;;;;;4956134;28;20393;-72
2021/11/09 11:43:47;;;;;;;9.63;6.83;;;11.40;58.70;;;;;;4955292;28;20070;-76
2021/11/09 11:46:16;;;;;;;3.05;0.65;;;11.40;58.50;;;;;;4956156;28;20031;-76
2021/11/09 11:49:00;;;;;;;11.43;8.40;;;11.50;58.90;;;;;;4955575;28;20031;-72
2021/11/09 11:51:28;;;;;;;4.40;0.82;;;11.50;58.90;;;;;;4955550;28;20050;-72
2021/11/09 11:53:55;;;;;;;1.42;0.75;;;11.40;58.50;;;;;;4955517;28;20050;-72
2021/11/09 11:56:51;;;;;;;2.00;0.70;;;11.30;58.60;;;;;;4955994;28;20034;-72
2021/11/09 11:59:40;;;;;;;3.25;2.13;;;11.30;59.10;;;;;;4949525;28;20050;-72
2021/11/09 12:02:09;;;;;;;1.50;0.70;;;11.30;58.90;;;;;;4959736;28;20035;-72
2021/11/09 12:04:36;;;;;;;8.27;3.40;;;11.10;59.30;;;;;;4966888;28;20502;-72
2021/11/09 12:07:10;;;;;;;26.17;19.15;;;11.10;59.20;;;;;;4956233;28;20031;-72
2021/11/09 12:09:44;;;;;;;1.45;1.02;;;11.20;59.90;;;;;;4955119;28;20034;-73
2021/11/09 12:12:23;;;;;;;1.40;0.60;;;11.40;58.90;;;;;;4956996;28;20057;-74
2021/11/09 12:15:03;;;;;;;3.55;1.05;;;11.50;58.40;;;;;;4970523;28;20038;-72
2021/11/09 12:17:36;;;;;;;1.30;0.77;;;11.40;58.50;;;;;;4954632;28;20396;-77
2021/11/09 12:20:09;;;;;;;2.38;0.60;;;11.30;58.50;;;;;;4955656;28;20039;-73
2021/11/09 12:22:42;;;;;;;7.47;6.20;;;11.40;59.60;;;;;;4954538;28;20035;-73
2021/11/09 12:25:22;;;;;;;3.83;2.45;;;11.40;59.10;;;;;;4964234;28;20038;-73
2021/11/09 12:27:48;;;;;;;2.75;0.50;;;11.50;59.00;;;;;;4957501;28;20042;-73
2021/11/09 12:30:33;;;;;;;6.70;2.65;;;11.50;58.40;;;;;;4964167;28;20038;-73
2021/11/09 12:33:17;;;;;;;2.70;1.20;;;11.50;59.40;;;;;;4954889;28;20120;-73
2021/11/09 12:35:58;;;;;;;1.13;0.60;;;11.60;59.30;;;;;;4954200;28;20038;-73
2021/11/09 12:38:36;;;;;;;4.85;0.60;;;11.50;58.30;;;;;;4954811;28;20039;-73
2021/11/09 12:41:13;;;;;;;2.03;1.15;;;11.60;58.60;;;;;;4954493;28;20465;-73
2021/11/09 12:43:55;;;;;;;3.33;0.93;;;11.60;58.30;;;;;;4966006;28;20046;-73
2021/11/09 12:46:31;;;;;;;4.28;0.95;;;11.50;58.80;;;;;;4959917;28;20035;-73
2021/11/09 12:49:01;;;;;;;8.50;1.05;;;11.50;57.90;;;;;;4954829;28;20039;-73
2021/11/09 12:51:40;;;;;;;2.25;0.93;;;11.50;58.60;;;;;;4954192;28;20035;-73
2021/11/09 12:54:13;;;;;;;1.48;0.93;;;11.50;58.80;;;;;;4954687;28;20038;-73
2021/11/09 12:56:42;;;;;;;3.25;1.17;;;11.60;58.40;;;;;;4954250;28;20039;-72
2021/11/09 12:59:31;;;;;;;2.00;0.60;;;11.70;57.90;;;;;;4954416;28;20028;-72
2021/11/09 13:05:04;;;;;;;1.92;0.60;;;11.50;58.20;;;;;;4954104;28;20046;-72
2021/11/09 13:07:32;;;;;;;1.67;0.63;;;11.50;58.00;;;;;;4952404;28;20039;-73
2021/11/09 13:10:26;;;;;;;4.25;0.90;;;11.60;58.10;;;;;;4954612;28;20392;-73
2021/11/09 13:12:54;;;;;;;1.77;0.95;;;11.70;57.20;;;;;;4953508;28;20161;-72
2021/11/09 13:15:22;;;;;;;2.65;0.95;;;11.80;58.00;;;;;;4965063;28;20054;-72
2021/11/09 13:17:54;;;;;;;2.30;0.60;;;11.90;57.50;;;;;;4953525;28;20035;-74
2021/11/09 13:23:15;;;;;;;1.30;0.80;;;11.70;57.20;;;;;;4954548;28;20038;-72
2021/11/09 13:25:48;;;;;;;0.73;0.50;;;11.80;57.10;;;;;;4953903;28;20043;-73
2021/11/09 13:28:14;;;;;;;2.70;0.60;;;11.70;57.30;;;;;;4954523;28;20039;-72
2021/11/09 13:30:45;;;;;;;1.35;0.50;;;11.70;57.70;;;;;;4954067;28;20031;-73
2021/11/09 13:33:12;;;;;;;4.20;1.58;;;11.70;58.50;;;;;;4953794;28;20036;-73
2021/11/09 13:35:43;;;;;;;1.40;0.75;;;11.80;57.80;;;;;;4953812;28;20054;-73
2021/11/09 13:38:20;;;;;;;1.15;0.60;;;11.70;57.50;;;;;;4954248;28;20042;-73
2021/11/09 13:40:49;;;;;;;4.82;1.95;;;11.70;57.60;;;;;;4953538;28;20038;-72
2021/11/09 13:43:19;;;;;;;6.00;4.30;;;11.60;57.70;;;;;;4954124;28;20035;-73
2021/11/09 13:45:45;;;;;;;6.37;2.00;;;11.70;58.70;;;;;;4953915;28;20039;-72
2021/11/09 13:48:20;;;;;;;8.25;7.40;;;11.60;58.90;;;;;;4954209;28;20046;-72
2021/11/09 13:50:51;;;;;;;2.40;1.08;;;11.60;58.80;;;;;;4955040;28;20031;-72
2021/11/09 13:53:25;;;;;;;;;;;11.60;58.40;;;;;;4958049;28;20035;-73
2021/11/09 13:55:52;;;;;;;0.93;0.75;;;11.60;58.60;;;;;;4974810;28;19910;-73
2021/11/09 13:58:19;;;;;;;2.10;0.90;;;11.70;58.60;;;;;;4960231;28;20058;-73
2021/11/09 14:00:48;;;;;;;1.83;0.88;;;11.70;58.40;;;;;;4957138;28;20038;-73
2021/11/09 14:03:52;;;;;;;2.80;0.95;;;11.70;58.50;;;;;;4958124;28;20043;-72
2021/11/09 14:16:37;;;;;;;2.70;1.20;;;11.60;59.10;;;;;;4957560;28;20362;-73
2021/11/09 14:19:10;;;;;;;2.65;1.15;;;11.60;58.90;;;;;;4957399;29;20027;-74
2021/11/09 14:21:39;;;;;;;4.57;3.88;;;11.50;58.80;;;;;;4957168;28;20031;-73
2021/11/09 14:24:21;;;;;;;3.03;1.02;;;11.50;59.20;;;;;;4957101;28;20035;-72
2021/11/09 14:27:10;;;;;;;5.90;1.70;;;11.50;59.10;;;;;;4957075;28;20039;-73
2021/11/09 14:29:39;;;;;;;2.60;1.40;;;11.50;59.30;;;;;;4955844;28;20389;-73
2021/11/09 14:32:09;;;;;;;3.88;1.58;;;11.50;59.00;;;;;;4957290;28;20089;-73
2021/11/09 14:34:37;;;;;;;3.22;1.10;;;11.50;59.50;;;;;;4955038;28;20051;-74
2021/11/09 14:37:21;;;;;;;2.72;1.30;;;11.50;59.70;;;;;;4957438;28;20483;-72
2021/11/09 14:40:28;;;;;;;1.38;0.88;;;11.40;59.50;;;;;;4963015;28;20039;-72
2021/11/09 14:45:35;;;;;;;4.65;1.80;;;11.30;60.30;;;;;;4956333;28;20035;-74
2021/11/09 14:48:15;;;;;;;1.90;1.35;;;11.30;60.60;;;;;;4956999;28;20039;-74
2021/11/09 14:50:51;;;;;;;2.50;1.40;;;11.30;60.50;;;;;;4956353;28;20043;-73
2021/11/09 14:53:23;;;;;;;1.83;1.00;;;11.30;60.70;;;;;;4958762;28;20046;-72
2021/11/09 14:56:02;;;;;;;4.32;1.60;;;11.20;60.70;;;;;;4973244;28;20061;-73
2021/11/09 14:58:36;;;;;;;12.57;2.17;;;11.20;60.70;;;;;;4956584;28;20065;-77
2021/11/09 15:01:58;;;;;;;1.30;0.85;;;11.10;61.20;;;;;;4956756;28;20035;-75
2021/11/09 15:04:37;;;;;;;2.05;1.10;;;11.10;61.50;;;;;;4956366;28;20050;-74
2021/11/09 15:07:21;;;;;;;11.18;4.53;;;11.00;61.80;;;;;;4956731;28;20485;-73
2021/11/09 15:10:25;;;;;;;11.20;3.72;;;11.00;61.90;;;;;;4956163;28;20054;-73
2021/11/09 15:29:24;;;;;;;2.10;1.35;;;10.40;65.20;;;;;;4955423;28;20054;-73
2021/11/09 15:31:57;;;;;;;4.28;1.05;;;10.10;66.00;;;;;;4956269;28;20062;-73
2021/11/09 15:34:46;;;;;;;2.97;1.30;;;9.90;66.90;;;;;;4955096;29;20048;-73
2021/11/09 15:39:48;;;;;;;3.65;1.27;;;9.50;69.20;;;;;;4955722;28;20031;-73
2021/11/09 15:42:16;;;;;;;2.15;1.00;;;9.40;70.40;;;;;;4973848;28;20050;-73
2021/11/09 15:44:43;;;;;;;2.63;1.70;;;9.20;71.70;;;;;;4957739;28;20039;-73
2021/11/09 15:47:10;;;;;;;4.55;1.38;;;9.00;72.70;;;;;;4956198;28;20036;-73
2021/11/09 15:49:37;;;;;;;1.65;0.98;;;8.70;74.20;;;;;;4955339;28;20035;-74
2021/11/09 15:52:04;;;;;;;6.55;1.10;;;8.60;74.80;;;;;;4955265;28;20038;-74